createdAt,value
2023-01-30T00:00:13.266Z,8.40
2023-01-30T00:01:20.721Z,11.20
2023-01-30T00:02:23.215Z,9.73
2023-01-30T00:03:25.644Z,8.25
2023-01-30T00:04:27.970Z,8.50
2023-01-30T00:05:30.366Z,9.75
2023-01-30T00:06:33.308Z,9.23
2023-01-30T00:07:35.578Z,8.43
2023-01-30T00:08:37.908Z,12.60
2023-01-30T00:09:41.078Z,9.05
2023-01-30T00:10:44.226Z,10.85
2023-01-30T00:11:46.762Z,10.60
2023-01-30T00:12:49.170Z,10.18
2023-01-30T00:13:51.888Z,9.13
2023-01-30T00:14:54.170Z,10.55
2023-01-30T00:15:56.535Z,9.20
2023-01-30T00:16:59.120Z,10.13
2023-01-30T00:18:01.403Z,10.32
2023-01-30T00:19:03.839Z,9.10
2023-01-30T00:20:06.411Z,9.35
2023-01-30T00:21:11.657Z,11.82
2023-01-30T00:22:14.003Z,8.43
2023-01-30T00:23:16.270Z,8.02
2023-01-30T00:24:18.612Z,8.70
2023-01-30T00:25:21.158Z,11.70
2023-01-30T00:26:23.665Z,9.27
2023-01-30T00:27:25.928Z,8.50
2023-01-30T00:28:28.402Z,8.77
2023-01-30T00:29:30.726Z,10.27
2023-01-30T00:30:33.228Z,8.57
2023-01-30T00:31:35.689Z,10.02
2023-01-30T00:32:38.223Z,9.32
2023-01-30T00:33:40.628Z,9.50
2023-01-30T00:34:42.990Z,8.73
2023-01-30T00:35:48.456Z,10.45
2023-01-30T00:36:58.949Z,8.85
2023-01-30T00:38:10.252Z,7.68
2023-01-30T00:39:12.573Z,8.77
2023-01-30T00:40:15.033Z,9.70
2023-01-30T00:41:19.163Z,7.60
2023-01-30T00:42:44.440Z,10.70
2023-01-30T00:44:05.468Z,10.65
2023-01-30T00:45:29.859Z,12.90
2023-01-30T00:46:52.853Z,10.48
2023-01-30T00:47:55.261Z,9.02
2023-01-30T00:48:57.597Z,9.65
2023-01-30T00:49:59.882Z,10.77
2023-01-30T00:51:02.464Z,9.18
2023-01-30T00:52:05.937Z,10.02
2023-01-30T00:53:13.043Z,9.15
2023-01-30T00:54:16.655Z,8.15
2023-01-30T00:55:19.255Z,9.05
2023-01-30T00:56:21.847Z,10.80
2023-01-30T00:57:24.149Z,10.13
2023-01-30T00:58:26.795Z,9.38
2023-01-30T00:59:29.423Z,9.93
2023-01-30T01:00:32.773Z,11.20
2023-01-30T01:01:35.172Z,8.82
2023-01-30T01:02:37.663Z,10.15
2023-01-30T01:03:39.995Z,8.98
2023-01-30T01:04:45.022Z,9.70
2023-01-30T01:05:47.424Z,11.68
2023-01-30T01:06:49.905Z,9.98
2023-01-30T01:07:52.494Z,11.35
2023-01-30T01:08:54.909Z,10.20
2023-01-30T01:09:57.260Z,11.98
2023-01-30T01:11:00.106Z,10.98
2023-01-30T01:12:02.564Z,10.13
2023-01-30T01:13:06.805Z,9.27
2023-01-30T01:14:09.246Z,10.90
2023-01-30T01:15:12.991Z,8.95
2023-01-30T01:16:15.354Z,12.25
2023-01-30T01:17:17.681Z,9.50
2023-01-30T01:18:20.039Z,10.98
2023-01-30T01:19:22.762Z,10.65
2023-01-30T01:20:25.303Z,9.13
2023-01-30T01:21:27.755Z,8.93
2023-01-30T01:22:30.109Z,8.68
2023-01-30T01:23:32.427Z,10.88
2023-01-30T01:24:34.839Z,9.52
2023-01-30T01:25:37.175Z,10.05
2023-01-30T01:26:42.141Z,11.15
2023-01-30T01:27:46.991Z,10.20
2023-01-30T01:28:59.059Z,10.50
2023-01-30T01:30:02.506Z,9.60
2023-01-30T01:31:11.890Z,10.40
2023-01-30T01:32:14.368Z,9.73
2023-01-30T01:33:16.765Z,9.88
2023-01-30T01:34:19.074Z,10.30
2023-01-30T01:35:21.394Z,10.15
2023-01-30T01:36:51.721Z,10.73
2023-01-30T01:37:46.726Z,8.95
2023-01-30T01:38:49.248Z,11.68
2023-01-30T01:40:10.420Z,11.98
2023-01-30T01:41:14.468Z,9.55
2023-01-30T01:42:17.578Z,8.23
2023-01-30T01:43:24.760Z,8.35
2023-01-30T01:44:27.134Z,8.13
2023-01-30T01:45:30.074Z,10.25
2023-01-30T01:46:50.085Z,11.48
2023-01-30T01:48:00.473Z,10.43
2023-01-30T01:49:07.838Z,11.75
2023-01-30T01:50:20.959Z,7.95
2023-01-30T01:51:34.720Z,10.57
2023-01-30T01:52:37.052Z,11.63
2023-01-30T01:53:57.925Z,10.13
2023-01-30T01:55:04.264Z,10.43
2023-01-30T01:56:07.510Z,10.25
2023-01-30T01:57:18.084Z,8.65
2023-01-30T01:58:25.425Z,10.35
2023-01-30T01:59:34.749Z,11.38
2023-01-30T02:00:37.211Z,9.38
2023-01-30T02:01:40.567Z,8.27
2023-01-30T02:02:47.774Z,10.73
2023-01-30T02:03:56.925Z,7.53
2023-01-30T02:05:02.960Z,7.75
2023-01-30T02:06:07.074Z,8.63
2023-01-30T02:07:10.055Z,9.52
2023-01-30T02:08:21.367Z,8.20
2023-01-30T02:09:26.432Z,9.00
2023-01-30T02:10:48.457Z,8.27
2023-01-30T02:11:56.999Z,8.45
2023-01-30T02:12:59.279Z,9.20
2023-01-30T02:14:02.984Z,8.23
2023-01-30T02:15:05.898Z,9.25
2023-01-30T02:16:09.304Z,8.07
2023-01-30T02:17:12.955Z,10.80
2023-01-30T02:18:16.716Z,8.48
2023-01-30T02:19:54.854Z,11.23
2023-01-30T02:21:28.088Z,7.45
2023-01-30T02:22:57.733Z,8.80
2023-01-30T02:24:08.851Z,7.93
2023-01-30T02:25:44.664Z,9.82
2023-01-30T02:26:54.902Z,10.77
2023-01-30T02:28:13.588Z,9.05
2023-01-30T02:29:36.728Z,9.23
2023-01-30T02:30:59.971Z,6.97
2023-01-30T02:32:05.203Z,9.32
2023-01-30T02:33:23.692Z,8.50
2023-01-30T02:34:57.351Z,7.00
2023-01-30T02:36:11.241Z,10.35
2023-01-30T02:37:50.071Z,7.72
2023-01-30T02:39:08.738Z,9.45
2023-01-30T02:40:16.606Z,9.45
2023-01-30T02:42:00.146Z,8.93
2023-01-30T02:43:41.071Z,8.35
2023-01-30T02:45:21.118Z,7.55
2023-01-30T02:46:55.091Z,6.78
2023-01-30T02:48:03.079Z,9.75
2023-01-30T02:49:15.101Z,8.15
2023-01-30T02:50:25.395Z,7.60
2023-01-30T02:51:31.657Z,9.00
2023-01-30T02:52:35.099Z,7.20
2023-01-30T02:53:38.000Z,7.30
2023-01-30T02:54:40.915Z,7.78
2023-01-30T02:55:44.340Z,8.25
2023-01-30T02:56:55.195Z,7.40
2023-01-30T02:57:58.705Z,9.88
2023-01-30T02:59:08.822Z,6.47
2023-01-30T03:00:12.702Z,7.35
2023-01-30T03:01:32.493Z,6.95
2023-01-30T03:03:09.833Z,5.95
2023-01-30T03:04:33.356Z,7.95
2023-01-30T03:05:55.099Z,9.93
2023-01-30T03:07:23.040Z,8.15
2023-01-30T03:08:41.525Z,6.20
2023-01-30T03:09:55.807Z,6.75
2023-01-30T03:11:05.574Z,8.43
2023-01-30T03:12:31.756Z,5.60
2023-01-30T03:13:58.943Z,8.18
2023-01-30T03:15:32.604Z,8.13
2023-01-30T03:16:38.815Z,6.10
2023-01-30T03:17:45.203Z,7.97
2023-01-30T03:18:51.076Z,6.53
2023-01-30T03:19:54.870Z,7.53
2023-01-30T03:21:03.213Z,6.72
2023-01-30T03:22:05.514Z,7.60
2023-01-30T03:23:08.696Z,7.82
2023-01-30T03:24:12.984Z,8.30
2023-01-30T03:25:20.836Z,7.53
2023-01-30T03:26:29.464Z,8.60
2023-01-30T03:27:34.199Z,7.78
2023-01-30T03:28:37.367Z,7.68
2023-01-30T03:29:40.585Z,8.60
2023-01-30T03:30:42.972Z,6.22
2023-01-30T03:31:45.645Z,7.53
2023-01-30T03:32:48.084Z,7.35
2023-01-30T03:33:50.493Z,8.15
2023-01-30T03:34:53.082Z,7.35
2023-01-30T03:35:55.771Z,7.35
2023-01-30T03:36:59.534Z,7.53
2023-01-30T03:38:02.465Z,6.13
2023-01-30T03:39:05.487Z,7.55
2023-01-30T03:40:08.364Z,7.30
2023-01-30T03:41:10.947Z,6.47
2023-01-30T03:42:14.519Z,7.10
2023-01-30T03:43:17.002Z,6.30
2023-01-30T03:44:19.631Z,6.35
2023-01-30T03:45:21.972Z,6.80
2023-01-30T03:46:24.314Z,6.80
2023-01-30T03:47:27.103Z,7.30
2023-01-30T03:48:30.578Z,16.08
2023-01-30T03:49:32.892Z,6.50
2023-01-30T03:50:35.537Z,5.78
2023-01-30T03:51:38.085Z,7.47
2023-01-30T03:52:40.487Z,7.97
2023-01-30T03:53:46.576Z,9.70
2023-01-30T03:54:48.910Z,7.55
2023-01-30T03:55:51.337Z,20.50
2023-01-30T03:56:59.262Z,13.98
2023-01-30T03:58:01.626Z,15.35
2023-01-30T03:59:07.040Z,21.80
2023-01-30T04:00:16.540Z,15.90
2023-01-30T04:01:19.026Z,12.02
2023-01-30T04:02:23.409Z,11.75
2023-01-30T04:03:26.647Z,12.40
2023-01-30T04:04:33.330Z,9.82
2023-01-30T04:05:36.699Z,14.48
2023-01-30T04:06:41.667Z,8.77
2023-01-30T04:07:44.019Z,9.65
2023-01-30T04:08:46.905Z,7.63
2023-01-30T04:10:01.740Z,6.40
2023-01-30T04:11:04.247Z,12.10
2023-01-30T04:12:07.119Z,7.80
2023-01-30T04:13:14.745Z,8.15
2023-01-30T04:14:17.423Z,6.63
2023-01-30T04:15:40.058Z,5.53
2023-01-30T04:17:11.328Z,10.32
2023-01-30T04:18:42.437Z,5.60
2023-01-30T04:19:48.407Z,7.78
2023-01-30T04:20:50.739Z,5.63
2023-01-30T04:21:58.393Z,6.03
2023-01-30T04:23:00.795Z,7.13
2023-01-30T04:24:03.537Z,4.70
2023-01-30T04:25:06.057Z,6.65
2023-01-30T04:26:08.766Z,5.13
2023-01-30T04:27:13.512Z,6.13
2023-01-30T04:28:29.853Z,5.57
2023-01-30T04:29:32.738Z,7.50
2023-01-30T04:30:37.780Z,5.25
2023-01-30T04:32:02.794Z,5.47
2023-01-30T04:33:09.214Z,6.18
2023-01-30T04:34:11.530Z,44.78
2023-01-30T04:35:13.862Z,102.22
2023-01-30T04:36:16.629Z,58.72
2023-01-30T04:37:20.376Z,39.72
2023-01-30T04:38:24.752Z,33.75
2023-01-30T04:39:27.474Z,24.23
2023-01-30T04:40:29.797Z,21.85
2023-01-30T04:41:32.522Z,17.55
2023-01-30T04:42:36.611Z,13.23
2023-01-30T04:44:01.559Z,12.73
2023-01-30T04:45:30.438Z,11.05
2023-01-30T04:46:32.817Z,9.85
2023-01-30T04:47:35.378Z,12.70
2023-01-30T04:48:37.832Z,11.38
2023-01-30T04:49:40.182Z,9.05
2023-01-30T04:50:44.736Z,9.05
2023-01-30T04:51:47.880Z,7.55
2023-01-30T04:52:50.910Z,10.77
2023-01-30T04:53:53.389Z,10.20
2023-01-30T04:54:55.772Z,10.27
2023-01-30T04:55:58.146Z,9.00
2023-01-30T04:57:00.601Z,11.88
2023-01-30T04:58:03.257Z,22.00
2023-01-30T04:59:06.169Z,20.50
2023-01-30T05:00:13.947Z,28.67
2023-01-30T05:01:30.679Z,20.98
2023-01-30T05:02:33.887Z,12.45
2023-01-30T05:03:36.138Z,13.50
2023-01-30T05:04:38.646Z,9.48
2023-01-30T05:05:40.994Z,10.27
2023-01-30T05:06:44.409Z,9.38
2023-01-30T05:07:46.788Z,10.65
2023-01-30T05:08:53.209Z,9.02
2023-01-30T05:09:55.466Z,13.88
2023-01-30T05:10:58.369Z,10.10
2023-01-30T05:12:00.658Z,8.57
2023-01-30T05:13:06.664Z,9.65
2023-01-30T05:14:08.952Z,9.05
2023-01-30T05:15:12.234Z,10.27
2023-01-30T05:16:15.909Z,7.93
2023-01-30T05:17:18.252Z,9.80
2023-01-30T05:18:20.678Z,9.38
2023-01-30T05:19:23.051Z,8.13
2023-01-30T05:20:25.530Z,8.90
2023-01-30T05:21:28.640Z,8.25
2023-01-30T05:22:31.158Z,7.38
2023-01-30T05:23:33.641Z,9.77
2023-01-30T05:24:36.712Z,22.10
2023-01-30T05:25:39.005Z,28.67
2023-01-30T05:26:41.325Z,29.42
2023-01-30T05:27:43.630Z,22.05
2023-01-30T05:28:54.545Z,25.38
2023-01-30T05:29:56.852Z,15.77
2023-01-30T05:31:13.810Z,11.75
2023-01-30T05:32:17.912Z,12.63
2023-01-30T05:33:20.184Z,11.25
2023-01-30T05:34:22.619Z,9.45
2023-01-30T05:35:25.069Z,14.82
2023-01-30T05:36:27.365Z,10.32
2023-01-30T05:37:29.675Z,14.43
2023-01-30T05:38:32.037Z,8.38
2023-01-30T05:39:34.506Z,11.30
2023-01-30T05:40:36.855Z,10.80
2023-01-30T05:41:39.167Z,10.55
2023-01-30T05:42:41.483Z,11.52
2023-01-30T05:43:43.952Z,9.45
2023-01-30T05:44:46.540Z,9.55
2023-01-30T05:45:54.436Z,9.23
2023-01-30T05:46:57.023Z,9.52
2023-01-30T05:48:01.533Z,10.30
2023-01-30T05:49:04.274Z,10.50
2023-01-30T05:50:06.811Z,9.20
2023-01-30T05:51:20.538Z,13.55
2023-01-30T05:52:22.858Z,8.60
2023-01-30T05:53:28.355Z,11.90
2023-01-30T05:54:30.622Z,7.47
2023-01-30T05:55:33.081Z,9.88
2023-01-30T05:56:35.574Z,14.10
2023-01-30T05:57:37.848Z,17.50
2023-01-30T05:58:40.251Z,10.25
2023-01-30T05:59:42.586Z,8.93
2023-01-30T06:00:44.905Z,12.70
2023-01-30T06:01:47.289Z,10.98
2023-01-30T06:02:49.582Z,16.23
2023-01-30T06:03:52.669Z,12.32
2023-01-30T06:04:54.985Z,13.68
2023-01-30T06:05:57.285Z,12.00
2023-01-30T06:06:59.681Z,14.15
2023-01-30T06:08:02.053Z,10.75
2023-01-30T06:09:04.712Z,9.73
2023-01-30T06:10:07.221Z,9.63
2023-01-30T06:11:12.917Z,9.88
2023-01-30T06:12:15.226Z,9.63
2023-01-30T06:13:17.760Z,16.42
2023-01-30T06:14:20.111Z,9.60
2023-01-30T06:15:22.494Z,9.13
2023-01-30T06:16:24.963Z,10.93
2023-01-30T06:17:29.732Z,9.23
2023-01-30T06:18:32.379Z,18.33
2023-01-30T06:19:34.657Z,17.17
2023-01-30T06:20:37.276Z,15.40
2023-01-30T06:21:39.544Z,12.93
2023-01-30T06:22:41.898Z,11.50
2023-01-30T06:23:44.462Z,12.98
2023-01-30T06:24:46.758Z,8.52
2023-01-30T06:25:50.188Z,8.95
2023-01-30T06:26:52.712Z,12.00
2023-01-30T06:27:55.038Z,7.82
2023-01-30T06:28:57.285Z,8.60
2023-01-30T06:29:59.541Z,19.23
2023-01-30T06:31:02.069Z,7.38
2023-01-30T06:32:04.731Z,16.33
2023-01-30T06:33:07.681Z,11.90
2023-01-30T06:34:11.771Z,10.82
2023-01-30T06:35:14.267Z,12.20
2023-01-30T06:36:16.623Z,14.13
2023-01-30T06:37:19.042Z,8.05
2023-01-30T06:38:21.411Z,11.60
2023-01-30T06:39:23.748Z,9.38
2023-01-30T06:40:26.187Z,10.80
2023-01-30T06:41:28.559Z,9.98
2023-01-30T06:42:30.861Z,11.70
2023-01-30T06:43:33.148Z,11.70
2023-01-30T06:44:35.594Z,9.82
2023-01-30T06:45:37.856Z,9.40
2023-01-30T06:46:40.119Z,9.50
2023-01-30T06:48:00.349Z,8.82
2023-01-30T06:49:02.636Z,7.43
2023-01-30T06:50:05.237Z,9.68
2023-01-30T06:51:07.480Z,9.02
2023-01-30T06:52:10.060Z,11.80
2023-01-30T06:53:12.432Z,8.40
2023-01-30T06:54:14.798Z,10.43
2023-01-30T06:55:19.978Z,6.18
2023-01-30T06:56:22.609Z,9.27
2023-01-30T06:57:24.907Z,7.35
2023-01-30T06:58:27.536Z,8.13
2023-01-30T06:59:29.830Z,10.65
2023-01-30T07:00:32.927Z,11.88
2023-01-30T07:01:35.500Z,7.43
2023-01-30T07:02:37.992Z,6.60
2023-01-30T07:03:40.503Z,8.18
2023-01-30T07:04:42.824Z,8.18
2023-01-30T07:05:46.756Z,10.18
2023-01-30T07:06:49.939Z,7.25
2023-01-30T07:07:52.383Z,124.80
2023-01-30T07:08:58.357Z,29.05
2023-01-30T07:10:07.959Z,25.25
2023-01-30T07:11:11.146Z,24.98
2023-01-30T07:12:13.511Z,23.77
2023-01-30T07:13:17.004Z,19.38
2023-01-30T07:14:19.385Z,17.85
2023-01-30T07:15:21.675Z,13.55
2023-01-30T07:16:29.116Z,13.98
2023-01-30T07:17:31.535Z,13.38
2023-01-30T07:18:33.860Z,13.10
2023-01-30T07:19:36.128Z,13.05
2023-01-30T07:20:38.681Z,10.70
2023-01-30T07:21:40.990Z,13.38
2023-01-30T07:22:48.586Z,11.38
2023-01-30T07:23:50.947Z,11.45
2023-01-30T07:24:53.214Z,11.20
2023-01-30T07:25:55.543Z,11.75
2023-01-30T07:26:57.807Z,17.80
2023-01-30T07:28:01.838Z,11.30
2023-01-30T07:29:04.175Z,10.25
2023-01-30T07:30:07.254Z,14.93
2023-01-30T07:31:09.517Z,10.63
2023-01-30T07:32:16.921Z,11.85
2023-01-30T07:33:20.051Z,11.30
2023-01-30T07:34:22.349Z,9.10
2023-01-30T07:35:26.185Z,17.60
2023-01-30T07:36:28.444Z,10.32
2023-01-30T07:37:30.743Z,9.43
2023-01-30T07:38:33.185Z,10.73
2023-01-30T07:39:36.035Z,10.85
2023-01-30T07:40:38.392Z,9.88
2023-01-30T07:41:41.198Z,12.23
2023-01-30T07:43:00.116Z,9.55
2023-01-30T07:44:02.846Z,12.77
2023-01-30T07:45:05.605Z,10.93
2023-01-30T07:46:07.908Z,9.55
2023-01-30T07:47:10.274Z,10.20
2023-01-30T07:48:16.052Z,13.27
2023-01-30T07:49:18.448Z,10.55
2023-01-30T07:50:20.965Z,10.90
2023-01-30T07:51:23.465Z,10.60
2023-01-30T07:52:25.747Z,10.73
2023-01-30T07:53:27.991Z,10.13
2023-01-30T07:54:30.305Z,9.90
2023-01-30T07:55:33.524Z,11.18
2023-01-30T07:56:35.939Z,73.18
2023-01-30T07:57:38.236Z,40.97
2023-01-30T07:58:40.491Z,40.10
2023-01-30T07:59:42.938Z,36.50
2023-01-30T08:00:45.345Z,28.45
2023-01-30T08:01:47.732Z,22.77
2023-01-30T08:02:50.117Z,24.13
2023-01-30T08:03:52.404Z,19.00
2023-01-30T08:04:54.724Z,17.65
2023-01-30T08:05:57.087Z,15.57
2023-01-30T08:06:59.384Z,18.38
2023-01-30T08:08:01.678Z,18.75
2023-01-30T08:09:03.976Z,22.48
2023-01-30T08:10:06.970Z,17.10
2023-01-30T08:11:09.803Z,15.45
2023-01-30T08:12:12.106Z,15.45
2023-01-30T08:13:14.469Z,14.55
2023-01-30T08:14:16.976Z,14.25
2023-01-30T08:15:21.221Z,16.27
2023-01-30T08:16:24.872Z,17.92
2023-01-30T08:17:27.245Z,15.10
2023-01-30T08:18:30.764Z,14.65
2023-01-30T08:19:33.288Z,14.73
2023-01-30T08:20:36.418Z,15.00
2023-01-30T08:21:38.651Z,15.93
2023-01-30T08:22:40.891Z,15.45
2023-01-30T08:23:43.150Z,13.00
2023-01-30T08:24:45.524Z,11.40
2023-01-30T08:25:47.794Z,15.23
2023-01-30T08:26:50.309Z,15.32
2023-01-30T08:27:52.934Z,13.68
2023-01-30T08:28:55.945Z,13.10
2023-01-30T08:29:58.354Z,14.48
2023-01-30T08:31:00.941Z,17.25
2023-01-30T08:32:03.403Z,11.40
2023-01-30T08:33:05.757Z,12.30
2023-01-30T08:34:08.070Z,11.02
2023-01-30T08:35:11.057Z,11.10
2023-01-30T08:36:13.587Z,9.43
2023-01-30T08:37:16.105Z,9.25
2023-01-30T08:38:18.442Z,9.35
2023-01-30T08:39:20.748Z,13.07
2023-01-30T08:40:23.027Z,7.35
2023-01-30T08:41:27.416Z,8.48
2023-01-30T08:42:29.708Z,7.97
2023-01-30T08:43:32.028Z,7.15
2023-01-30T08:44:34.317Z,10.93
2023-01-30T08:45:36.983Z,9.05
2023-01-30T08:46:39.634Z,7.68
2023-01-30T08:47:42.293Z,8.52
2023-01-30T08:48:49.796Z,7.63
2023-01-30T08:49:53.069Z,182.68
2023-01-30T08:50:56.358Z,80.13
2023-01-30T08:51:59.085Z,89.10
2023-01-30T08:53:09.932Z,91.43
2023-01-30T08:54:12.716Z,86.20
2023-01-30T08:55:15.083Z,81.82
2023-01-30T08:56:17.437Z,66.85
2023-01-30T08:57:19.776Z,64.47
2023-01-30T08:58:22.671Z,48.60
2023-01-30T08:59:24.948Z,47.13
2023-01-30T09:00:28.291Z,40.38
2023-01-30T09:01:30.631Z,46.50
2023-01-30T09:02:33.012Z,37.60
2023-01-30T09:03:35.737Z,41.50
2023-01-30T09:04:38.082Z,44.05
2023-01-30T09:05:40.452Z,42.50
2023-01-30T09:06:42.868Z,47.63
2023-01-30T09:07:45.253Z,46.78
2023-01-30T09:08:47.797Z,54.75
2023-01-30T09:09:50.379Z,48.75
2023-01-30T09:10:52.862Z,47.53
2023-01-30T09:11:55.233Z,52.83
2023-01-30T09:12:57.571Z,48.72
2023-01-30T09:13:59.901Z,44.58
2023-01-30T09:15:02.185Z,47.97
2023-01-30T09:16:06.624Z,44.35
2023-01-30T09:17:09.073Z,50.53
2023-01-30T09:18:11.545Z,45.78
2023-01-30T09:19:14.198Z,42.20
2023-01-30T09:20:18.837Z,40.35
2023-01-30T09:21:22.075Z,43.33
2023-01-30T09:22:27.076Z,48.10
2023-01-30T09:23:29.394Z,39.45
2023-01-30T09:24:31.794Z,44.78
2023-01-30T09:25:34.107Z,41.60
2023-01-30T09:26:36.463Z,42.33
2023-01-30T09:27:38.745Z,47.05
2023-01-30T09:28:41.207Z,42.15
2023-01-30T09:29:45.252Z,39.85
2023-01-30T09:30:48.017Z,41.47
2023-01-30T09:31:50.369Z,35.58
2023-01-30T09:32:52.659Z,37.75
2023-01-30T09:33:55.004Z,36.92
2023-01-30T09:34:57.381Z,40.60
2023-01-30T09:35:59.820Z,39.55
2023-01-30T09:37:04.878Z,39.35
2023-01-30T09:38:07.498Z,37.63
2023-01-30T09:39:10.093Z,36.50
2023-01-30T09:40:17.360Z,37.63
2023-01-30T09:41:58.769Z,33.40
2023-01-30T09:43:39.239Z,37.00
2023-01-30T09:45:02.462Z,32.35
2023-01-30T09:46:05.036Z,37.83
2023-01-30T09:47:20.146Z,32.95
2023-01-30T09:48:43.880Z,34.08
2023-01-30T09:50:10.569Z,40.50
2023-01-30T09:51:25.799Z,39.72
2023-01-30T09:53:03.433Z,32.88
2023-01-30T09:54:24.450Z,38.70
2023-01-30T09:55:29.739Z,31.13
2023-01-30T09:56:32.186Z,36.30
2023-01-30T09:57:36.170Z,48.03
2023-01-30T09:58:44.346Z,36.75
2023-01-30T10:00:26.954Z,32.47
2023-01-30T10:02:04.158Z,31.20
2023-01-30T10:03:18.983Z,34.03
2023-01-30T10:04:31.667Z,32.33
2023-01-30T10:05:48.275Z,31.30
2023-01-30T10:07:20.940Z,34.85
2023-01-30T10:08:51.318Z,30.75
2023-01-30T10:09:56.568Z,31.80
2023-01-30T10:11:14.211Z,36.85
2023-01-30T10:12:16.398Z,30.02
2023-01-30T10:13:52.164Z,28.30
2023-01-30T10:14:57.592Z,33.40
2023-01-30T10:16:02.888Z,32.28
2023-01-30T10:17:32.877Z,34.40
2023-01-30T10:18:54.156Z,30.27
2023-01-30T10:20:11.474Z,30.48
2023-01-30T10:21:30.998Z,30.42
2023-01-30T10:22:33.262Z,30.75
2023-01-30T10:23:47.542Z,30.63
2023-01-30T10:25:07.837Z,26.73
2023-01-30T10:26:16.374Z,31.15
2023-01-30T10:27:20.436Z,30.02
2023-01-30T10:28:34.354Z,30.60
2023-01-30T10:29:39.828Z,22.08
2023-01-30T10:30:45.919Z,75.35
2023-01-30T10:31:57.027Z,39.92
2023-01-30T10:33:06.214Z,35.47
2023-01-30T10:34:29.191Z,36.13
2023-01-30T10:35:35.611Z,28.48
2023-01-30T10:37:09.830Z,29.73
2023-01-30T10:38:35.507Z,30.38
2023-01-30T10:40:00.530Z,29.30
2023-01-30T10:41:17.715Z,25.80
2023-01-30T10:42:29.157Z,29.17
2023-01-30T10:43:42.486Z,27.10
2023-01-30T10:44:44.990Z,28.40
2023-01-30T10:46:09.807Z,24.27
2023-01-30T10:47:47.939Z,29.83
2023-01-30T10:48:59.519Z,26.92
2023-01-30T10:51:23.668Z,24.42
2023-01-30T10:52:49.057Z,26.13
2023-01-30T10:54:28.704Z,27.75
2023-01-30T10:55:38.425Z,26.67
2023-01-30T10:57:12.089Z,30.10
2023-01-30T10:58:32.243Z,26.42
2023-01-30T11:00:05.340Z,27.52
2023-01-30T11:01:17.443Z,28.85
2023-01-30T11:02:51.806Z,30.40
2023-01-30T11:04:00.542Z,25.45
2023-01-30T11:05:25.530Z,25.60
2023-01-30T11:06:29.224Z,22.48
2023-01-30T11:07:33.415Z,20.83
2023-01-30T11:08:36.219Z,24.15
2023-01-30T11:09:43.971Z,23.35
2023-01-30T11:10:46.413Z,20.13
2023-01-30T11:11:53.410Z,25.58
2023-01-30T11:13:10.137Z,21.58
2023-01-30T11:14:12.896Z,21.42
2023-01-30T11:15:16.243Z,26.90
2023-01-30T11:16:18.805Z,24.83
2023-01-30T11:17:28.559Z,21.85
2023-01-30T11:19:56.623Z,27.35
2023-01-30T11:21:04.099Z,19.27
2023-01-30T11:22:06.724Z,20.33
2023-01-30T11:23:42.939Z,24.75
2023-01-30T11:24:45.955Z,40.97
2023-01-30T11:25:59.261Z,24.73
2023-01-30T11:27:30.101Z,49.63
2023-01-30T11:28:50.721Z,40.10
2023-01-30T11:30:10.238Z,33.28
2023-01-30T11:31:40.870Z,25.25
2023-01-30T11:32:46.316Z,26.48
2023-01-30T11:34:01.935Z,26.48
2023-01-30T11:35:07.068Z,20.80
2023-01-30T11:36:30.653Z,22.00
2023-01-30T11:37:35.624Z,21.95
2023-01-30T11:38:56.759Z,27.08
2023-01-30T11:39:59.434Z,25.80
2023-01-30T11:41:21.632Z,24.83
2023-01-30T11:42:31.591Z,23.33
2023-01-30T11:43:37.024Z,24.35
2023-01-30T11:44:42.396Z,21.13
2023-01-30T11:45:48.556Z,24.48
2023-01-30T11:46:50.940Z,21.83
2023-01-30T11:47:58.782Z,21.95
2023-01-30T11:49:47.057Z,30.75
2023-01-30T11:50:41.956Z,22.33
2023-01-30T11:51:48.865Z,21.35
2023-01-30T11:52:51.166Z,20.40
2023-01-30T11:53:59.669Z,20.02
2023-01-30T11:55:07.628Z,20.52
2023-01-30T11:56:20.931Z,23.05
2023-01-30T11:57:23.295Z,27.52
2023-01-30T11:58:34.069Z,18.17
2023-01-30T11:59:44.637Z,22.15
2023-01-30T12:00:49.361Z,21.38
2023-01-30T12:01:52.824Z,20.08
2023-01-30T12:03:01.935Z,20.90
2023-01-30T12:04:08.976Z,20.77
2023-01-30T12:05:34.451Z,21.95
2023-01-30T12:06:39.468Z,20.42
2023-01-30T12:07:44.126Z,20.00
2023-01-30T12:08:46.364Z,24.38
2023-01-30T12:09:50.389Z,20.00
2023-01-30T12:11:02.435Z,19.35
2023-01-30T12:12:33.377Z,18.88
2023-01-30T12:13:41.801Z,21.20
2023-01-30T12:14:49.213Z,28.42
2023-01-30T12:16:16.189Z,26.25
2023-01-30T12:17:30.040Z,22.67
2023-01-30T12:18:43.241Z,21.15
2023-01-30T12:19:56.995Z,21.00
2023-01-30T12:21:02.084Z,15.90
2023-01-30T12:22:20.465Z,17.15
2023-01-30T12:23:55.547Z,17.00
2023-01-30T12:24:59.847Z,19.42
2023-01-30T12:26:17.226Z,20.40
2023-01-30T12:27:54.934Z,20.65
2023-01-30T12:29:19.362Z,18.40
2023-01-30T12:30:27.769Z,20.55
2023-01-30T12:31:39.206Z,19.50
2023-01-30T12:33:43.706Z,20.10
2023-01-30T12:34:47.883Z,19.77
2023-01-30T12:36:00.800Z,20.08
2023-01-30T12:37:39.458Z,15.45
2023-01-30T12:39:14.008Z,21.95
2023-01-30T12:40:44.169Z,16.92
2023-01-30T12:43:47.286Z,17.30
2023-01-30T12:46:09.319Z,21.52
2023-01-30T12:47:26.501Z,18.23
2023-01-30T12:49:12.002Z,16.02
2023-01-30T12:50:26.095Z,16.45
2023-01-30T12:51:57.966Z,18.00
2023-01-30T12:54:46.705Z,16.20
2023-01-30T12:56:14.098Z,15.70
2023-01-30T12:57:24.937Z,15.23
2023-01-30T12:58:45.879Z,15.52
2023-01-30T13:00:02.118Z,26.05
2023-01-30T13:01:29.406Z,14.70
2023-01-30T13:03:06.690Z,14.80
2023-01-30T13:04:56.539Z,15.40
2023-01-30T13:06:07.392Z,17.17
2023-01-30T13:07:42.404Z,18.95
2023-01-30T13:09:05.025Z,15.88
2023-01-30T13:10:27.011Z,18.55
2023-01-30T13:11:35.114Z,16.25
2023-01-30T13:12:37.387Z,18.50
2023-01-30T13:13:46.711Z,15.50
2023-01-30T13:15:03.599Z,13.90
2023-01-30T13:16:18.871Z,13.45
2023-01-30T13:17:42.137Z,15.30
2023-01-30T13:18:49.791Z,13.35
2023-01-30T13:19:59.398Z,15.88
2023-01-30T13:21:18.615Z,15.13
2023-01-30T13:22:43.244Z,13.25
2023-01-30T13:24:06.563Z,14.70
2023-01-30T13:25:27.012Z,14.98
2023-01-30T13:26:35.769Z,14.18
2023-01-30T13:27:43.358Z,13.00
2023-01-30T13:28:53.077Z,14.57
2023-01-30T13:29:55.898Z,22.25
2023-01-30T13:30:59.385Z,16.33
2023-01-30T13:32:05.683Z,15.63
2023-01-30T13:33:20.994Z,12.40
2023-01-30T13:34:38.607Z,14.35
2023-01-30T13:35:56.397Z,16.00
2023-01-30T13:37:10.836Z,14.23
2023-01-30T13:38:19.614Z,13.82
2023-01-30T13:39:44.915Z,12.15
2023-01-30T13:40:51.209Z,17.80
2023-01-30T13:41:57.629Z,235.90
2023-01-30T13:43:04.429Z,115.47
2023-01-30T13:44:21.343Z,125.05
2023-01-30T13:45:31.783Z,96.78
2023-01-30T13:46:38.059Z,87.38
2023-01-30T13:47:55.750Z,85.53
2023-01-30T13:49:24.772Z,60.28
2023-01-30T13:51:03.345Z,53.70
2023-01-30T13:52:34.295Z,48.38
2023-01-30T13:53:54.295Z,56.60
2023-01-30T13:55:15.883Z,48.22
2023-01-30T13:57:56.266Z,45.92
2023-01-30T13:59:15.902Z,50.97
2023-01-30T14:00:31.505Z,49.75
2023-01-30T14:02:06.853Z,52.00
2023-01-30T14:03:09.099Z,49.15
2023-01-30T14:04:40.629Z,45.78
2023-01-30T14:05:52.201Z,47.00
2023-01-30T14:06:54.453Z,44.75
2023-01-30T14:07:56.800Z,47.03
2023-01-30T14:09:04.863Z,43.15
2023-01-30T14:10:09.983Z,43.42
2023-01-30T14:11:34.349Z,44.50
2023-01-30T14:12:40.282Z,25.77
2023-01-30T14:13:53.591Z,40.90
2023-01-30T14:15:14.411Z,25.58
2023-01-30T14:16:16.893Z,17.02
2023-01-30T14:17:19.564Z,14.25
2023-01-30T14:18:25.062Z,27.10
2023-01-30T14:19:58.416Z,16.35
2023-01-30T14:21:20.390Z,15.43
2023-01-30T14:22:33.898Z,13.68
2023-01-30T14:23:36.496Z,15.68
2023-01-30T14:24:38.760Z,18.20
2023-01-30T14:25:47.043Z,13.25
2023-01-30T14:26:52.324Z,15.48
2023-01-30T14:28:00.483Z,10.65
2023-01-30T14:29:02.864Z,11.35
2023-01-30T14:30:30.702Z,11.57
2023-01-30T14:31:48.763Z,11.65
2023-01-30T14:32:56.264Z,15.68
2023-01-30T14:33:58.521Z,13.77
2023-01-30T14:35:03.744Z,14.68
2023-01-30T14:36:06.173Z,16.02
2023-01-30T14:37:53.680Z,13.95
2023-01-30T14:39:47.890Z,14.80
2023-01-30T14:40:58.966Z,16.13
2023-01-30T14:42:20.925Z,12.05
2023-01-30T14:43:27.193Z,16.45
2023-01-30T14:45:02.430Z,14.52
2023-01-30T14:46:19.678Z,13.23
2023-01-30T14:47:33.952Z,18.55
2023-01-30T14:48:49.896Z,14.40
2023-01-30T14:49:52.496Z,13.60
2023-01-30T14:51:29.129Z,13.70
2023-01-30T14:52:39.534Z,15.63
2023-01-30T14:54:14.419Z,13.80
2023-01-30T14:55:21.228Z,14.90
2023-01-30T14:56:44.770Z,16.05
2023-01-30T14:58:18.445Z,19.63
2023-01-30T14:59:31.299Z,16.17
2023-01-30T15:00:38.142Z,14.30
2023-01-30T15:01:58.641Z,16.48
2023-01-30T15:03:05.679Z,14.43